createdAt,value
2018-09-06T00:02:13.201Z,17.46
2018-09-06T00:04:41.204Z,17.49
2018-09-06T00:07:09.213Z,17.48
2018-09-06T00:09:37.262Z,17.53
2018-09-06T00:12:05.448Z,17.61
2018-09-06T00:14:33.450Z,17.51
2018-09-06T00:17:01.455Z,17.54
2018-09-06T00:19:29.473Z,17.55
2018-09-06T00:21:57.491Z,17.65
2018-09-06T00:24:25.497Z,17.57
2018-09-06T00:26:53.503Z,17.50
2018-09-06T00:29:21.509Z,17.48
2018-09-06T00:31:49.549Z,17.48
2018-09-06T00:34:17.596Z,17.47
2018-09-06T00:36:45.784Z,17.58
2018-09-06T00:39:13.852Z,17.65
2018-09-06T00:41:41.853Z,17.69
2018-09-06T00:44:09.849Z,17.65
2018-09-06T00:46:37.858Z,17.81
2018-09-06T00:49:05.980Z,17.88
2018-09-06T00:51:33.988Z,17.64
2018-09-06T00:54:01.999Z,17.60
2018-09-06T00:56:30.042Z,17.60
2018-09-06T00:58:58.057Z,17.59
2018-09-06T01:01:26.304Z,17.74
2018-09-06T01:03:54.324Z,17.82
2018-09-06T01:06:22.339Z,17.71
2018-09-06T01:08:50.320Z,17.79
2018-09-06T01:11:18.347Z,17.78
2018-09-06T01:13:46.354Z,17.92
2018-09-06T01:16:14.365Z,17.92
2018-09-06T01:18:42.389Z,17.97
2018-09-06T01:21:10.385Z,17.91
2018-09-06T01:23:38.392Z,17.95
2018-09-06T01:26:06.604Z,17.85
2018-09-06T01:28:34.585Z,17.78
2018-09-06T01:31:02.580Z,17.86
2018-09-06T01:33:30.621Z,17.79
2018-09-06T01:36:03.931Z,17.89
2018-09-06T01:38:31.990Z,17.63
2018-09-06T01:40:59.940Z,17.70
2018-09-06T01:43:27.942Z,17.57
2018-09-06T01:45:55.948Z,17.58
2018-09-06T01:48:23.958Z,17.48
2018-09-06T01:50:51.943Z,17.48
2018-09-06T01:53:19.981Z,17.49
2018-09-06T01:55:47.972Z,17.30
2018-09-06T01:58:15.982Z,17.41
2018-09-06T02:00:45.376Z,17.30
2018-09-06T02:03:13.363Z,17.25
2018-09-06T02:05:41.353Z,17.20
2018-09-06T02:08:09.365Z,17.01
2018-09-06T02:10:37.585Z,16.93
2018-09-06T02:13:05.588Z,16.81
2018-09-06T02:15:33.771Z,16.77
2018-09-06T02:18:01.813Z,16.56
2018-09-06T02:20:29.812Z,16.65
2018-09-06T02:22:57.976Z,16.59
2018-09-06T02:25:26.008Z,16.52
2018-09-06T02:27:54.024Z,16.45
2018-09-06T02:30:22.029Z,16.55
2018-09-06T02:32:50.033Z,16.64
2018-09-06T02:35:18.041Z,16.72
2018-09-06T02:37:46.039Z,16.71
2018-09-06T02:40:19.381Z,16.56
2018-09-06T02:42:47.456Z,16.53
2018-09-06T02:45:15.557Z,16.53
2018-09-06T02:47:49.029Z,16.49
2018-09-06T02:50:22.762Z,16.42
2018-09-06T02:52:51.176Z,16.28
2018-09-06T02:55:19.165Z,16.22
2018-09-06T02:57:47.248Z,16.20
2018-09-06T03:00:15.260Z,16.29
2018-09-06T03:02:43.265Z,16.18
2018-09-06T03:05:11.262Z,16.13
2018-09-06T03:07:39.265Z,16.09
2018-09-06T03:10:07.330Z,16.05
2018-09-06T03:12:35.386Z,15.98
2018-09-06T03:15:03.381Z,15.92
2018-09-06T03:17:31.392Z,15.80
2018-09-06T03:19:59.428Z,15.71
2018-09-06T03:22:27.480Z,15.77
2018-09-06T03:24:55.559Z,15.65
2018-09-06T03:27:23.554Z,15.59
2018-09-06T03:29:51.556Z,15.59
2018-09-06T03:32:19.573Z,15.55
2018-09-06T03:34:47.583Z,15.58
2018-09-06T03:37:15.809Z,15.65
2018-09-06T03:39:43.825Z,15.58
2018-09-06T03:42:11.844Z,15.73
2018-09-06T03:44:39.849Z,15.75
2018-09-06T03:47:07.836Z,15.73
2018-09-06T03:49:35.904Z,15.68
2018-09-06T03:52:03.897Z,15.74
2018-09-06T03:54:31.909Z,15.78
2018-09-06T03:56:59.943Z,15.63
2018-09-06T03:59:28.138Z,15.56
2018-09-06T04:01:56.132Z,15.59
2018-09-06T04:04:24.145Z,15.47
2018-09-06T04:06:52.138Z,15.49
2018-09-06T04:09:20.240Z,15.59
2018-09-06T04:11:48.248Z,15.70
2018-09-06T04:14:16.576Z,15.69
2018-09-06T04:16:44.608Z,15.73
2018-09-06T04:19:12.653Z,15.72
2018-09-06T04:21:40.783Z,15.75
2018-09-06T04:24:08.910Z,15.69
2018-09-06T04:26:36.957Z,15.58
2018-09-06T04:29:04.957Z,15.63
2018-09-06T04:31:33.009Z,15.63
2018-09-06T04:34:01.040Z,15.56
2018-09-06T04:36:29.211Z,15.63
2018-09-06T04:38:57.448Z,15.57
2018-09-06T04:41:25.465Z,15.48
2018-09-06T04:43:53.562Z,15.64
2018-09-06T04:46:21.536Z,15.69
2018-09-06T04:48:49.702Z,15.67
2018-09-06T04:51:17.844Z,15.54
2018-09-06T04:53:45.848Z,15.48
2018-09-06T04:56:14.083Z,15.50
2018-09-06T04:58:42.115Z,15.57
2018-09-06T05:01:10.104Z,15.55
2018-09-06T05:03:38.264Z,15.48
2018-09-06T05:06:06.360Z,15.38
2018-09-06T05:08:34.377Z,15.39
2018-09-06T05:11:02.445Z,15.34
2018-09-06T05:13:30.525Z,15.57
2018-09-06T05:15:58.544Z,15.79
2018-09-06T05:18:26.549Z,16.11
2018-09-06T05:20:54.546Z,16.62
2018-09-06T05:23:22.573Z,16.91
2018-09-06T05:25:50.571Z,17.34
2018-09-06T05:28:18.572Z,17.63
2018-09-06T05:30:46.612Z,17.91
2018-09-06T05:33:14.608Z,18.31
2018-09-06T05:35:42.657Z,18.45
2018-09-06T05:38:10.752Z,18.97
2018-09-06T05:40:38.771Z,19.50
2018-09-06T05:43:06.760Z,20.10
2018-09-06T05:45:34.994Z,20.38
2018-09-06T05:48:03.686Z,20.86
2018-09-06T05:50:31.944Z,21.53
2018-09-06T05:53:01.449Z,21.89
2018-09-06T05:55:29.457Z,22.36
2018-09-06T05:57:57.660Z,22.97
2018-09-06T06:00:30.948Z,22.92
2018-09-06T06:03:00.707Z,23.02
2018-09-06T06:05:28.876Z,23.21
2018-09-06T06:08:08.517Z,23.69
2018-09-06T06:10:36.765Z,23.70
2018-09-06T06:13:04.763Z,23.65
2018-09-06T06:15:32.756Z,24.21
2018-09-06T06:18:00.793Z,24.74
2018-09-06T06:20:28.827Z,24.72
2018-09-06T06:22:56.924Z,25.44
2018-09-06T06:25:24.922Z,25.72
2018-09-06T06:27:52.977Z,26.03
2018-09-06T06:30:21.035Z,25.94
2018-09-06T06:32:49.038Z,26.15
2018-09-06T06:35:17.096Z,26.80
2018-09-06T06:37:45.104Z,27.23
2018-09-06T06:40:13.270Z,27.03
2018-09-06T06:42:41.284Z,27.37
2018-09-06T06:45:09.281Z,27.57
2018-09-06T06:47:37.334Z,28.16
2018-09-06T06:50:05.345Z,28.47
2018-09-06T06:52:33.345Z,29.01
2018-09-06T06:55:01.341Z,29.60
2018-09-06T06:57:29.332Z,29.52
2018-09-06T06:59:57.379Z,30.01
2018-09-06T07:02:25.368Z,29.97
2018-09-06T07:04:53.537Z,29.36
2018-09-06T07:07:21.615Z,29.84
2018-09-06T07:09:49.608Z,30.46
2018-09-06T07:12:17.728Z,29.70
2018-09-06T07:14:45.735Z,29.60
2018-09-06T07:17:13.753Z,29.77
2018-09-06T07:19:41.755Z,29.86
2018-09-06T07:22:09.752Z,29.81
2018-09-06T07:24:37.832Z,30.28
2018-09-06T07:27:05.973Z,30.30
2018-09-06T07:29:33.998Z,30.67
2018-09-06T07:32:01.983Z,30.98
2018-09-06T07:34:29.982Z,30.81
2018-09-06T07:36:57.974Z,30.85
2018-09-06T07:39:25.966Z,31.17
2018-09-06T07:41:54.007Z,31.55
2018-09-06T07:44:21.985Z,32.10
2018-09-06T07:46:50.028Z,31.82
2018-09-06T07:49:17.977Z,31.56
2018-09-06T07:51:45.982Z,31.41
2018-09-06T07:54:14.062Z,30.85
2018-09-06T07:56:42.066Z,30.47
2018-09-06T07:59:10.065Z,30.52
2018-09-06T08:01:38.121Z,29.89
2018-09-06T08:04:06.261Z,29.57
2018-09-06T08:06:34.295Z,29.62
2018-09-06T08:09:02.289Z,30.62
2018-09-06T08:11:30.290Z,30.68
2018-09-06T08:13:58.293Z,30.68
2018-09-06T08:16:26.304Z,30.86
2018-09-06T08:18:54.334Z,30.86
2018-09-06T08:21:22.317Z,29.88
2018-09-06T08:23:51.392Z,29.76
2018-09-06T08:26:19.401Z,29.85
2018-09-06T08:28:47.417Z,30.37
2018-09-06T08:31:15.507Z,30.93
2018-09-06T08:33:43.444Z,31.46
2018-09-06T08:36:11.452Z,31.66
2018-09-06T08:38:39.452Z,32.24
2018-09-06T08:41:07.478Z,31.90
2018-09-06T08:43:35.569Z,31.34
2018-09-06T08:46:03.572Z,31.41
2018-09-06T08:48:31.572Z,31.22
2018-09-06T08:50:59.577Z,31.50
2018-09-06T08:53:27.576Z,31.64
2018-09-06T08:55:55.600Z,31.26
2018-09-06T08:58:23.810Z,31.26
2018-09-06T09:00:57.167Z,30.89
2018-09-06T09:03:25.161Z,30.60
2018-09-06T09:05:53.183Z,30.86
2018-09-06T09:08:21.209Z,30.75
2018-09-06T09:10:49.275Z,30.71
2018-09-06T09:13:17.416Z,30.50
2018-09-06T09:15:45.455Z,30.34
2018-09-06T09:18:13.726Z,29.92
2018-09-06T09:20:41.738Z,30.03
2018-09-06T09:23:09.772Z,29.84
2018-09-06T09:25:37.930Z,29.55
2018-09-06T09:28:05.890Z,29.03
2018-09-06T09:30:33.933Z,28.75
2018-09-06T09:33:01.904Z,28.69
2018-09-06T09:35:30.132Z,28.76
2018-09-06T09:37:58.220Z,28.54
2018-09-06T09:40:26.257Z,28.01
2018-09-06T09:42:54.277Z,27.70
2018-09-06T09:45:22.273Z,27.77
2018-09-06T09:47:50.307Z,27.62
2018-09-06T09:52:45.545Z,27.53
2018-09-06T09:55:13.578Z,27.43
2018-09-06T09:57:41.577Z,27.43
2018-09-06T10:00:09.629Z,27.61
2018-09-06T10:02:43.324Z,27.22
2018-09-06T10:05:16.921Z,27.30
2018-09-06T10:07:50.500Z,27.53
2018-09-06T10:10:18.515Z,27.37
2018-09-06T10:12:46.517Z,27.40
2018-09-06T10:15:14.514Z,27.65
2018-09-06T10:17:42.504Z,27.71
2018-09-06T10:20:10.505Z,27.90
2018-09-06T10:22:38.512Z,28.00
2018-09-06T10:25:06.570Z,27.89
2018-09-06T10:27:34.661Z,27.94
2018-09-06T10:30:02.676Z,27.93
2018-09-06T10:32:30.790Z,27.98
2018-09-06T10:34:58.772Z,27.77
2018-09-06T10:37:26.763Z,28.05
2018-09-06T10:39:54.870Z,28.28
2018-09-06T10:42:22.966Z,28.28
2018-09-06T10:44:51.006Z,28.00
2018-09-06T10:47:19.028Z,28.12
2018-09-06T10:49:47.045Z,28.36
2018-09-06T10:52:15.056Z,28.75
2018-09-06T10:54:43.092Z,28.66
2018-09-06T10:57:11.101Z,28.53
2018-09-06T10:59:39.096Z,28.23
2018-09-06T11:02:07.096Z,28.25
2018-09-06T11:04:35.104Z,28.28
2018-09-06T11:07:03.097Z,28.40
2018-09-06T11:09:31.152Z,28.48
2018-09-06T11:11:59.173Z,28.62
2018-09-06T11:14:27.156Z,28.53
2018-09-06T11:16:55.165Z,28.81
2018-09-06T11:19:23.241Z,28.42
2018-09-06T11:21:51.466Z,28.33
2018-09-06T11:24:19.280Z,27.99
2018-09-06T11:26:47.501Z,27.66
2018-09-06T11:29:15.574Z,27.62
2018-09-06T11:31:43.721Z,27.93
2018-09-06T11:34:11.713Z,28.04
2018-09-06T11:36:39.712Z,28.37
2018-09-06T11:39:09.065Z,28.54
2018-09-06T11:41:37.482Z,28.50
2018-09-06T11:44:05.843Z,28.72
2018-09-06T11:46:33.854Z,28.57
2018-09-06T11:49:01.875Z,28.56
2018-09-06T11:51:29.924Z,28.69
2018-09-06T11:53:58.201Z,28.81
2018-09-06T11:56:26.268Z,28.80
2018-09-06T11:58:54.468Z,29.03
2018-09-06T12:01:22.468Z,29.10
2018-09-06T12:03:50.553Z,29.34
2018-09-06T12:06:18.758Z,29.37
2018-09-06T12:08:46.802Z,29.41
2018-09-06T12:11:14.861Z,29.38
2018-09-06T12:13:42.951Z,29.40
2018-09-06T12:16:10.972Z,29.53
2018-09-06T12:18:38.995Z,29.60
2018-09-06T12:21:07.039Z,29.44
2018-09-06T12:23:35.049Z,29.26
2018-09-06T12:26:03.065Z,29.03
2018-09-06T12:28:31.069Z,29.15
2018-09-06T12:30:59.088Z,29.14
2018-09-06T12:33:27.150Z,28.94
2018-09-06T12:35:55.114Z,28.97
2018-09-06T12:38:23.110Z,28.86
2018-09-06T12:40:51.505Z,29.01
2018-09-06T12:43:19.811Z,29.44
2018-09-06T12:45:47.961Z,29.49
2018-09-06T12:48:15.984Z,29.54
2018-09-06T12:50:44.023Z,29.37
2018-09-06T12:53:12.063Z,29.14
2018-09-06T12:55:40.180Z,29.33
2018-09-06T12:58:08.356Z,29.39
2018-09-06T13:00:36.377Z,29.41
2018-09-06T13:03:04.464Z,29.60
2018-09-06T13:05:32.537Z,29.66
2018-09-06T13:08:00.600Z,29.93
2018-09-06T13:10:28.585Z,29.79
2018-09-06T13:12:56.753Z,29.74
2018-09-06T13:15:24.748Z,29.62
2018-09-06T13:17:52.872Z,29.49
2018-09-06T13:20:20.900Z,29.76
2018-09-06T13:22:48.961Z,30.01
2018-09-06T13:25:17.035Z,30.08
2018-09-06T13:27:45.133Z,29.88
2018-09-06T13:30:13.125Z,29.63
2018-09-06T13:32:41.350Z,29.66
2018-09-06T13:35:09.357Z,29.57
2018-09-06T13:37:37.457Z,29.47
2018-09-06T13:40:05.652Z,29.20
2018-09-06T13:42:33.744Z,29.15
2018-09-06T13:45:01.814Z,28.90
2018-09-06T13:47:29.931Z,28.81
2018-09-06T13:49:57.965Z,28.89
2018-09-06T13:52:26.042Z,28.89
2018-09-06T13:54:54.066Z,29.13
2018-09-06T13:57:22.108Z,29.28
2018-09-06T13:59:50.184Z,29.49
2018-09-06T14:02:18.183Z,29.65
2018-09-06T14:04:46.290Z,29.36
2018-09-06T14:07:14.326Z,29.24
2018-09-06T14:09:42.389Z,29.06
2018-09-06T14:12:10.515Z,29.12
2018-09-06T14:14:38.505Z,29.13
2018-09-06T14:17:06.535Z,29.25
2018-09-06T14:19:34.524Z,29.26
2018-09-06T14:22:02.536Z,29.14
2018-09-06T14:24:30.545Z,29.22
2018-09-06T14:26:59.050Z,29.52
2018-09-06T14:29:27.059Z,29.45
2018-09-06T14:31:55.067Z,29.40
2018-09-06T14:34:23.324Z,29.10
2018-09-06T14:36:51.341Z,29.22
2018-09-06T14:39:19.368Z,29.34
2018-09-06T14:41:47.444Z,29.43
2018-09-06T14:44:15.521Z,29.39
2018-09-06T14:46:43.524Z,29.40
2018-09-06T14:49:11.556Z,29.29
2018-09-06T14:51:39.572Z,29.36
2018-09-06T14:54:07.626Z,29.39
2018-09-06T14:56:35.809Z,28.93
2018-09-06T14:59:04.105Z,27.76
2018-09-06T15:01:32.194Z,26.91
2018-09-06T15:04:00.136Z,26.32
2018-09-06T15:06:28.149Z,25.80
2018-09-06T15:08:56.228Z,25.33
2018-09-06T15:11:24.238Z,24.91
2018-09-06T15:13:52.312Z,24.56
2018-09-06T15:16:20.327Z,24.26
2018-09-06T15:18:48.360Z,23.83
2018-09-06T15:21:16.456Z,23.21
2018-09-06T15:23:44.477Z,22.92
2018-09-06T15:26:12.476Z,22.45
2018-09-06T15:28:40.489Z,21.98
2018-09-06T15:31:08.646Z,21.61
2018-09-06T15:33:36.669Z,21.28
2018-09-06T15:36:04.724Z,21.10
2018-09-06T15:38:32.720Z,21.24
2018-09-06T15:41:00.721Z,21.27
2018-09-06T15:43:28.757Z,21.45
2018-09-06T15:45:56.849Z,21.24
2018-09-06T15:48:25.024Z,21.09
2018-09-06T15:50:53.028Z,21.20
2018-09-06T15:53:21.077Z,21.33
2018-09-06T15:55:49.104Z,21.42
2018-09-06T15:58:17.105Z,21.45
2018-09-06T16:00:45.377Z,21.58
2018-09-06T16:03:13.385Z,21.65
2018-09-06T16:05:41.465Z,21.71
2018-09-06T16:08:09.481Z,21.59
2018-09-06T16:10:37.593Z,21.67
2018-09-06T16:13:05.589Z,21.76
2018-09-06T16:15:33.637Z,21.96
2018-09-06T16:18:01.644Z,22.09
2018-09-06T16:20:29.661Z,22.03
2018-09-06T16:22:57.744Z,22.02
2018-09-06T16:25:25.785Z,22.04
2018-09-06T16:27:53.901Z,22.07
2018-09-06T16:30:21.986Z,22.16
2018-09-06T16:32:49.914Z,22.20
2018-09-06T16:35:17.921Z,22.27
2018-09-06T16:37:46.094Z,22.35
2018-09-06T16:40:14.130Z,22.44
2018-09-06T16:42:42.348Z,22.45
2018-09-06T16:45:10.306Z,22.42
2018-09-06T16:47:38.309Z,22.36
2018-09-06T16:50:06.380Z,21.86
2018-09-06T16:52:34.451Z,21.83
2018-09-06T16:55:02.448Z,21.88
2018-09-06T16:57:30.487Z,21.88
2018-09-06T16:59:58.495Z,21.86
2018-09-06T17:02:26.521Z,21.68
2018-09-06T17:04:54.545Z,21.72
2018-09-06T17:07:22.589Z,21.57
2018-09-06T17:09:50.668Z,21.46
2018-09-06T17:12:18.674Z,21.52
2018-09-06T17:14:46.805Z,21.70
2018-09-06T17:17:15.048Z,21.88
2018-09-06T17:19:43.090Z,21.92
2018-09-06T17:22:11.215Z,21.95
2018-09-06T17:24:39.229Z,21.95
2018-09-06T17:27:07.229Z,21.91
2018-09-06T17:29:35.342Z,21.94
2018-09-06T17:32:03.349Z,21.89
2018-09-06T17:34:31.371Z,22.00
2018-09-06T17:36:59.393Z,22.07
2018-09-06T17:39:27.492Z,21.98
2018-09-06T17:41:55.629Z,22.04
2018-09-06T17:44:23.849Z,22.06
2018-09-06T17:46:51.911Z,22.11
2018-09-06T17:49:19.964Z,22.07
2018-09-06T17:51:48.081Z,21.90
2018-09-06T17:54:16.164Z,21.77
2018-09-06T17:56:44.238Z,21.67
2018-09-06T17:59:12.260Z,21.55
2018-09-06T18:01:41.569Z,21.61
2018-09-06T18:04:09.578Z,21.68
2018-09-06T18:06:37.653Z,21.71
2018-09-06T18:09:08.278Z,21.77
2018-09-06T18:11:36.333Z,21.81
2018-09-06T18:14:04.346Z,21.84
2018-09-06T18:16:32.391Z,21.84
2018-09-06T18:19:00.412Z,21.69
2018-09-06T18:21:28.487Z,21.67
2018-09-06T18:23:57.105Z,21.74
2018-09-06T18:26:25.441Z,21.80
2018-09-06T18:28:53.495Z,21.80
2018-09-06T18:31:21.501Z,21.69
2018-09-06T18:33:49.565Z,21.72
2018-09-06T18:36:17.613Z,21.73
2018-09-06T18:38:46.465Z,21.80
2018-09-06T18:41:14.502Z,21.79
2018-09-06T18:43:42.595Z,21.80
2018-09-06T18:46:10.612Z,21.77
2018-09-06T18:48:38.764Z,21.68
2018-09-06T18:51:06.776Z,21.61
2018-09-06T18:53:34.960Z,21.66
2018-09-06T18:56:02.977Z,21.49
2018-09-06T18:58:31.090Z,21.42
2018-09-06T19:00:59.144Z,21.37
2018-09-06T19:03:27.181Z,21.26
2018-09-06T19:05:55.229Z,21.21
2018-09-06T19:08:23.360Z,21.32
2018-09-06T19:10:51.432Z,21.36
2018-09-06T19:13:19.437Z,21.40
2018-09-06T19:15:47.664Z,21.45
2018-09-06T19:18:15.927Z,21.42
2018-09-06T19:20:44.061Z,21.41
2018-09-06T19:23:12.136Z,21.38
2018-09-06T19:25:40.175Z,21.42
2018-09-06T19:28:08.161Z,21.43
2018-09-06T19:30:36.232Z,21.23
2018-09-06T19:33:04.558Z,21.38
2018-09-06T19:35:33.674Z,21.39
2018-09-06T19:38:02.489Z,21.44
2018-09-06T19:40:30.529Z,21.37
2018-09-06T19:42:58.531Z,21.42
2018-09-06T19:45:26.613Z,21.44
2018-09-06T19:47:54.908Z,21.42
2018-09-06T19:50:23.053Z,21.29
2018-09-06T19:52:51.135Z,21.10
2018-09-06T19:55:19.169Z,20.94
2018-09-06T19:57:47.180Z,20.81
2018-09-06T20:00:15.243Z,20.83
2018-09-06T20:02:44.332Z,20.80
2018-09-06T20:05:12.336Z,20.70
2018-09-06T20:07:40.360Z,20.79
2018-09-06T20:10:08.533Z,20.88
2018-09-06T20:12:36.945Z,20.94
2018-09-06T20:15:05.050Z,20.97
2018-09-06T20:17:33.085Z,21.01
2018-09-06T20:20:01.100Z,21.03
2018-09-06T20:22:29.113Z,21.03
2018-09-06T20:24:57.333Z,21.06
2018-09-06T20:27:25.372Z,21.05
2018-09-06T20:29:53.606Z,21.05
2018-09-06T20:32:21.636Z,21.06
2018-09-06T20:34:49.647Z,21.09
2018-09-06T20:37:17.681Z,21.11
2018-09-06T20:39:45.741Z,21.13
2018-09-06T20:42:13.762Z,21.13
2018-09-06T20:44:41.832Z,21.14
2018-09-06T20:47:09.849Z,21.13
2018-09-06T20:49:37.852Z,21.13
2018-09-06T20:52:05.916Z,21.07
2018-09-06T20:54:34.155Z,21.05
2018-09-06T20:57:02.332Z,21.02
2018-09-06T20:59:30.420Z,20.99
2018-09-06T21:02:02.589Z,20.95
2018-09-06T21:04:30.598Z,20.99
2018-09-06T21:06:58.651Z,20.94
2018-09-06T21:09:26.675Z,20.88
2018-09-06T21:11:55.771Z,20.82
2018-09-06T21:14:23.908Z,20.87
2018-09-06T21:16:51.977Z,20.86
2018-09-06T21:19:20.049Z,20.81
2018-09-06T21:21:48.164Z,20.88
2018-09-06T21:24:16.181Z,20.88
2018-09-06T21:26:44.212Z,20.83
2018-09-06T21:29:12.217Z,20.85
2018-09-06T21:31:40.261Z,20.75
2018-09-06T21:34:08.265Z,20.53
2018-09-06T21:36:36.309Z,20.39
2018-09-06T21:39:06.127Z,20.37
2018-09-06T21:41:34.148Z,20.34
2018-09-06T21:44:02.276Z,20.32
2018-09-06T21:46:30.400Z,20.44
2018-09-06T21:48:58.404Z,20.39
2018-09-06T21:51:26.625Z,20.44
2018-09-06T21:53:54.633Z,20.40
2018-09-06T21:56:22.852Z,20.34
2018-09-06T21:58:50.837Z,20.35
2018-09-06T22:01:18.916Z,20.34
2018-09-06T22:03:52.349Z,20.28
2018-09-06T22:06:20.599Z,20.13
2018-09-06T22:08:48.604Z,20.27
2018-09-06T22:11:16.684Z,20.35
2018-09-06T22:13:44.698Z,20.27
2018-09-06T22:16:12.710Z,20.19
2018-09-06T22:18:40.777Z,20.26
2018-09-06T22:21:08.812Z,20.28
2018-09-06T22:23:36.836Z,20.39
2018-09-06T22:26:04.837Z,20.33
2018-09-06T22:28:32.929Z,20.34
2018-09-06T22:31:01.081Z,20.35
2018-09-06T22:33:29.210Z,20.28
2018-09-06T22:35:57.220Z,20.31
2018-09-06T22:38:25.245Z,20.16
2018-09-06T22:40:53.261Z,20.19
2018-09-06T22:43:21.485Z,20.12
2018-09-06T22:45:49.488Z,20.15
2018-09-06T22:48:17.493Z,20.05
2018-09-06T22:53:13.788Z,20.19
2018-09-06T22:55:41.907Z,20.12
2018-09-06T22:58:09.969Z,20.02
2018-09-06T23:00:38.245Z,19.83
2018-09-06T23:03:11.753Z,19.71
2018-09-06T23:05:39.768Z,19.76
2018-09-06T23:08:07.781Z,19.82
2018-09-06T23:10:35.833Z,19.96
2018-09-06T23:13:04.849Z,19.94
2018-09-06T23:15:32.864Z,19.93
2018-09-06T23:18:00.885Z,19.92
2018-09-06T23:20:28.949Z,20.06
2018-09-06T23:22:56.982Z,20.01
2018-09-06T23:25:25.008Z,20.01
2018-09-06T23:27:53.016Z,19.98
2018-09-06T23:30:21.140Z,20.05
2018-09-06T23:32:49.457Z,20.00
2018-09-06T23:37:37.034Z,19.98
2018-09-06T23:40:05.541Z,20.05
2018-09-06T23:42:33.556Z,20.04
2018-09-06T23:45:01.683Z,20.04
2018-09-06T23:47:29.712Z,20.03
2018-09-06T23:49:57.757Z,19.99
2018-09-06T23:52:25.916Z,19.88
2018-09-06T23:54:54.076Z,19.82
2018-09-06T23:57:22.136Z,19.59
2018-09-06T23:59:51.105Z,19.64
